Terminal Aerodrome Forecast
Issued by NWS Grand Forks, ND

Home | Current Version | Previous Version | Graphics & Text | Print | Product List | Glossary On
Versions: 1 2 3 4 5 6 7 8 9 10 11 12 13 14 15 16 17 18 19
853
FTUS43 KFGF 212336
TAFGFK
TAF
KGFK 212336Z 2200/2224 15013KT P6SM SCT050
     FM220200 20010KT P6SM SCT200
     FM220400 26008KT P6SM SCT130
     FM220500 30007KT P6SM SCT130
     FM220800 33007KT P6SM SCT150
     FM221100 36008KT P6SM BKN200
     FM222100 02010KT P6SM OVC015=

USA.gov is the U.S. government's official web portal to all federal, state and local government web resources and services.